createdAt,value
2022-10-07T00:01:07.121Z,16.50
2022-10-07T00:03:35.407Z,16.50
2022-10-07T00:06:08.791Z,16.50
2022-10-07T00:08:37.616Z,16.50
2022-10-07T00:11:10.857Z,16.50
2022-10-07T00:13:40.781Z,16.50
2022-10-07T00:16:13.956Z,16.50
2022-10-07T00:18:42.162Z,16.50
2022-10-07T00:21:15.555Z,16.50
2022-10-07T00:23:44.751Z,16.50
2022-10-07T00:26:16.051Z,16.50
2022-10-07T00:28:44.260Z,16.40
2022-10-07T00:31:15.481Z,16.40
2022-10-07T00:33:43.713Z,16.40
2022-10-07T00:36:19.652Z,16.40
2022-10-07T00:38:58.612Z,16.40
2022-10-07T00:41:33.212Z,16.30
2022-10-07T00:44:21.047Z,16.30
2022-10-07T00:46:48.609Z,16.30
2022-10-07T00:49:16.100Z,16.30
2022-10-07T00:51:43.902Z,16.30
2022-10-07T00:54:14.765Z,16.30
2022-10-07T00:56:43.412Z,16.20
2022-10-07T00:59:12.502Z,16.20
2022-10-07T01:01:42.346Z,16.20
2022-10-07T01:04:12.193Z,16.20
2022-10-07T01:06:40.962Z,16.20
2022-10-07T01:09:10.572Z,16.10
2022-10-07T01:11:45.732Z,16.10
2022-10-07T01:14:13.482Z,16.10
2022-10-07T01:16:54.716Z,16.10
2022-10-07T01:19:28.299Z,16.10
2022-10-07T01:22:01.143Z,16.10
2022-10-07T01:24:35.063Z,16.20
2022-10-07T01:27:07.743Z,16.20
2022-10-07T01:29:43.505Z,16.20
2022-10-07T01:32:22.423Z,16.20
2022-10-07T01:34:53.025Z,16.10
2022-10-07T01:37:23.033Z,16.20
2022-10-07T01:39:55.283Z,16.20
2022-10-07T01:42:23.376Z,16.30
2022-10-07T01:44:57.019Z,16.40
2022-10-07T01:47:26.413Z,16.40
2022-10-07T01:49:53.764Z,16.40
2022-10-07T01:52:51.944Z,16.30
2022-10-07T01:55:38.554Z,16.30
2022-10-07T01:58:26.363Z,16.30
2022-10-07T02:01:03.600Z,16.30
2022-10-07T02:04:05.525Z,16.30
2022-10-07T02:06:36.495Z,16.30
2022-10-07T02:09:11.975Z,16.30
2022-10-07T02:11:42.974Z,16.30
2022-10-07T02:14:23.454Z,16.30
2022-10-07T02:16:57.336Z,16.30
2022-10-07T02:19:45.313Z,16.30
2022-10-07T02:22:16.213Z,16.30
2022-10-07T02:24:46.104Z,16.30
2022-10-07T02:27:16.774Z,16.20
2022-10-07T02:29:50.264Z,16.10
2022-10-07T02:32:23.057Z,15.90
2022-10-07T02:34:56.642Z,15.80
2022-10-07T02:37:29.133Z,15.70
2022-10-07T02:39:58.034Z,15.60
2022-10-07T02:42:33.887Z,15.60
2022-10-07T02:45:24.560Z,15.50
2022-10-07T02:48:09.995Z,15.50
2022-10-07T02:50:42.544Z,15.50
2022-10-07T02:53:13.068Z,15.40
2022-10-07T02:55:43.294Z,15.40
2022-10-07T02:58:13.024Z,15.50
2022-10-07T03:00:53.264Z,15.50
2022-10-07T03:03:22.065Z,15.50
2022-10-07T03:06:02.075Z,15.50
2022-10-07T03:08:30.855Z,15.60
2022-10-07T03:10:58.865Z,15.60
2022-10-07T03:13:26.514Z,15.60
2022-10-07T03:15:59.642Z,15.70
2022-10-07T03:18:29.934Z,15.70
2022-10-07T03:21:30.155Z,15.70
2022-10-07T03:24:01.095Z,15.70
2022-10-07T03:26:31.734Z,15.70
2022-10-07T03:29:01.541Z,15.60
2022-10-07T03:31:30.440Z,15.50
2022-10-07T03:33:59.954Z,15.60
2022-10-07T03:36:28.425Z,15.60
2022-10-07T03:38:56.095Z,15.60
2022-10-07T03:41:24.892Z,15.60
2022-10-07T03:43:57.669Z,15.70
2022-10-07T03:46:26.400Z,15.70
2022-10-07T03:48:54.425Z,15.70
2022-10-07T03:51:22.121Z,15.70
2022-10-07T03:53:50.154Z,15.70
2022-10-07T03:56:17.625Z,15.70
2022-10-07T03:58:45.086Z,15.70
2022-10-07T04:01:18.096Z,15.70
2022-10-07T04:03:52.805Z,15.70
2022-10-07T04:06:20.476Z,15.70
2022-10-07T04:08:53.131Z,15.70
2022-10-07T04:11:20.696Z,15.60
2022-10-07T04:13:48.676Z,15.60
2022-10-07T04:16:18.815Z,15.60
2022-10-07T04:18:47.926Z,15.60
2022-10-07T04:21:15.855Z,15.60
2022-10-07T04:23:43.305Z,15.60
2022-10-07T04:26:14.025Z,15.60
2022-10-07T04:28:45.497Z,15.60
2022-10-07T04:31:17.616Z,15.50
2022-10-07T04:33:53.825Z,15.50
2022-10-07T04:36:27.417Z,15.50
2022-10-07T04:39:07.789Z,15.50
2022-10-07T04:41:37.758Z,15.50
2022-10-07T04:44:09.410Z,15.40
2022-10-07T04:46:43.718Z,15.40
2022-10-07T04:49:14.452Z,15.40
2022-10-07T04:51:41.865Z,15.30
2022-10-07T04:54:09.716Z,15.00
2022-10-07T04:56:56.556Z,14.90
2022-10-07T04:59:29.978Z,14.90
2022-10-07T05:01:58.737Z,15.00
2022-10-07T05:04:26.894Z,15.00
2022-10-07T05:06:55.548Z,15.10
2022-10-07T05:09:24.265Z,15.10
2022-10-07T05:11:57.618Z,15.10
2022-10-07T05:14:24.977Z,15.10
2022-10-07T05:16:52.834Z,15.10
2022-10-07T05:19:23.355Z,15.20
2022-10-07T05:21:50.765Z,15.20
2022-10-07T05:24:19.155Z,15.20
2022-10-07T05:26:48.146Z,15.20
2022-10-07T05:29:15.577Z,15.20
2022-10-07T05:31:46.647Z,15.10
2022-10-07T05:34:17.149Z,15.20
2022-10-07T05:36:44.522Z,15.20
2022-10-07T05:39:13.176Z,15.20
2022-10-07T05:41:53.176Z,15.20
2022-10-07T05:44:26.113Z,15.20
2022-10-07T05:46:56.544Z,15.20
2022-10-07T05:49:24.575Z,15.20
2022-10-07T05:51:52.366Z,15.20
2022-10-07T05:54:20.565Z,15.20
2022-10-07T05:56:48.336Z,15.20
2022-10-07T05:59:17.727Z,15.20
2022-10-07T06:01:46.414Z,15.20
2022-10-07T06:04:20.137Z,15.10
2022-10-07T06:06:49.423Z,15.10
2022-10-07T06:09:35.519Z,15.10
2022-10-07T06:12:29.036Z,15.00
2022-10-07T06:14:58.049Z,15.00
2022-10-07T06:17:25.819Z,15.00
2022-10-07T06:19:56.981Z,15.00
2022-10-07T06:22:24.527Z,15.00
2022-10-07T06:24:56.729Z,15.00
2022-10-07T06:27:25.292Z,15.00
2022-10-07T06:29:52.840Z,15.00
2022-10-07T06:32:20.518Z,15.00
2022-10-07T06:34:48.891Z,15.00
2022-10-07T06:37:16.710Z,15.10
2022-10-07T06:39:44.989Z,15.10
2022-10-07T06:42:12.830Z,15.10
2022-10-07T06:44:58.842Z,15.10
2022-10-07T06:47:26.449Z,15.10
2022-10-07T06:49:53.839Z,15.10
2022-10-07T06:52:21.350Z,15.00
2022-10-07T06:54:48.770Z,15.00
2022-10-07T06:57:43.908Z,15.00
2022-10-07T07:00:06.582Z,15.00
2022-10-07T07:02:36.424Z,15.00
2022-10-07T07:05:08.797Z,15.00
2022-10-07T07:07:38.474Z,15.00
2022-10-07T07:10:07.562Z,15.00
2022-10-07T07:12:38.060Z,15.10
2022-10-07T07:15:06.060Z,15.10
2022-10-07T07:17:33.960Z,15.20
2022-10-07T07:20:01.584Z,15.30
2022-10-07T07:22:31.007Z,15.40
2022-10-07T07:24:58.399Z,15.50
2022-10-07T07:27:26.298Z,15.50
2022-10-07T07:29:53.719Z,15.60
2022-10-07T07:32:21.429Z,15.70
2022-10-07T07:34:48.914Z,15.70
2022-10-07T07:37:20.909Z,15.70
2022-10-07T07:39:52.288Z,15.80
2022-10-07T07:42:19.788Z,15.80
2022-10-07T07:44:48.499Z,15.80
2022-10-07T07:47:17.817Z,15.90
2022-10-07T07:49:46.730Z,15.90
2022-10-07T07:52:21.419Z,15.90
2022-10-07T07:54:51.890Z,15.90
2022-10-07T07:57:19.849Z,15.90
2022-10-07T07:59:47.459Z,16.00
2022-10-07T08:02:17.212Z,16.10
2022-10-07T08:04:48.650Z,16.10
2022-10-07T08:07:16.858Z,16.10
2022-10-07T08:09:46.998Z,16.10
2022-10-07T08:12:15.109Z,16.20
2022-10-07T08:14:43.470Z,16.20
2022-10-07T08:17:12.589Z,16.20
2022-10-07T08:19:40.551Z,16.30
2022-10-07T08:22:09.081Z,16.50
2022-10-07T08:24:37.909Z,16.60
2022-10-07T08:27:05.651Z,16.70
2022-10-07T08:29:33.188Z,16.80
2022-10-07T08:32:00.768Z,16.90
2022-10-07T08:34:28.459Z,17.00
2022-10-07T08:36:56.468Z,17.10
2022-10-07T08:39:24.889Z,17.30
2022-10-07T08:42:04.458Z,17.30
2022-10-07T08:44:39.231Z,17.40
2022-10-07T08:47:25.194Z,17.60
2022-10-07T08:50:07.907Z,17.50
2022-10-07T08:52:39.318Z,17.60
2022-10-07T08:55:21.112Z,17.90
2022-10-07T08:58:08.833Z,18.20
2022-10-07T09:00:50.332Z,18.40
2022-10-07T09:03:22.777Z,18.50
2022-10-07T09:05:53.569Z,18.70
2022-10-07T09:08:34.488Z,18.80
2022-10-07T09:11:16.006Z,19.10
2022-10-07T09:13:50.949Z,19.10
2022-10-07T09:16:52.498Z,18.90
2022-10-07T09:19:48.749Z,18.90
2022-10-07T09:22:32.349Z,19.00
2022-10-07T09:25:23.759Z,19.10
2022-10-07T09:27:52.439Z,19.20
2022-10-07T09:30:21.456Z,19.50
2022-10-07T09:32:54.081Z,19.60
2022-10-07T09:35:24.848Z,19.80
2022-10-07T09:37:56.408Z,20.10
2022-10-07T09:41:03.819Z,20.30
2022-10-07T09:43:33.009Z,20.40
2022-10-07T09:46:01.684Z,20.60
2022-10-07T09:48:34.612Z,20.60
2022-10-07T09:51:17.018Z,20.60
2022-10-07T09:53:58.420Z,20.60
2022-10-07T09:56:54.660Z,20.60
2022-10-07T09:59:35.979Z,20.60
2022-10-07T10:02:21.521Z,20.60
2022-10-07T10:04:55.309Z,20.70
2022-10-07T10:07:34.252Z,20.80
2022-10-07T10:10:21.788Z,20.80
2022-10-07T10:12:53.721Z,21.00
2022-10-07T10:15:23.849Z,21.30
2022-10-07T10:17:51.519Z,21.50
2022-10-07T10:20:24.949Z,21.60
2022-10-07T10:22:52.979Z,21.50
2022-10-07T10:26:04.910Z,21.50
2022-10-07T10:32:04.599Z,21.60
2022-10-07T10:38:25.968Z,21.50
2022-10-07T10:41:29.159Z,21.50
2022-10-07T10:44:20.251Z,21.40
2022-10-07T10:50:15.469Z,21.40
2022-10-07T10:53:24.719Z,21.50
2022-10-07T10:56:16.771Z,21.50
2022-10-07T10:59:15.570Z,21.40
2022-10-07T11:01:44.733Z,21.50
2022-10-07T11:04:17.090Z,21.70
2022-10-07T11:06:54.840Z,21.80
2022-10-07T11:09:45.329Z,22.00
2022-10-07T11:12:25.201Z,22.10
2022-10-07T11:14:59.290Z,22.10
2022-10-07T11:17:36.710Z,22.00
2022-10-07T11:20:25.649Z,22.00
2022-10-07T11:23:06.010Z,22.10
2022-10-07T11:25:36.380Z,22.10
2022-10-07T11:28:23.285Z,22.20
2022-10-07T11:31:17.775Z,22.10
2022-10-07T11:34:22.669Z,22.10
2022-10-07T11:37:24.842Z,22.10
2022-10-07T11:39:54.057Z,22.00
2022-10-07T11:42:28.260Z,22.00
2022-10-07T11:45:18.169Z,22.10
2022-10-07T11:48:05.969Z,22.20
2022-10-07T11:50:41.429Z,22.30
2022-10-07T11:53:18.200Z,22.50
2022-10-07T11:56:02.359Z,22.60
2022-10-07T11:58:33.500Z,22.70
2022-10-07T12:01:25.878Z,22.70
2022-10-07T12:04:15.615Z,22.80
2022-10-07T12:07:20.640Z,22.80
2022-10-07T12:10:03.511Z,22.70
2022-10-07T12:12:46.562Z,22.80
2022-10-07T12:15:43.753Z,22.80
2022-10-07T12:18:17.710Z,22.80
2022-10-07T12:20:51.159Z,22.80
2022-10-07T12:23:18.711Z,22.80
2022-10-07T12:25:50.002Z,22.80
2022-10-07T12:28:35.190Z,22.90
2022-10-07T12:31:27.635Z,22.90
2022-10-07T12:33:58.931Z,22.90
2022-10-07T12:36:28.320Z,23.30
2022-10-07T12:38:59.597Z,23.40
2022-10-07T12:41:40.561Z,23.50
2022-10-07T12:47:29.900Z,23.30
2022-10-07T12:50:02.702Z,23.30
2022-10-07T12:52:53.152Z,23.30
2022-10-07T12:55:48.320Z,23.30
2022-10-07T12:58:50.851Z,23.30
2022-10-07T13:01:32.792Z,23.50
2022-10-07T13:04:06.421Z,23.60
2022-10-07T13:06:55.670Z,23.70
2022-10-07T13:09:47.611Z,23.80
2022-10-07T13:12:36.010Z,23.90
2022-10-07T13:15:22.041Z,23.90
2022-10-07T13:18:03.123Z,23.90
2022-10-07T13:20:52.221Z,23.90
2022-10-07T13:23:26.209Z,23.90
2022-10-07T13:25:57.675Z,23.90
2022-10-07T13:28:46.563Z,23.90
2022-10-07T13:31:26.223Z,23.90
2022-10-07T13:33:55.210Z,23.90
2022-10-07T13:36:23.663Z,23.90
2022-10-07T13:38:54.471Z,23.80
2022-10-07T13:41:27.771Z,23.70
2022-10-07T13:44:02.812Z,23.70
2022-10-07T13:46:32.680Z,23.60
2022-10-07T13:49:01.211Z,23.50
2022-10-07T13:51:38.131Z,23.50
2022-10-07T13:54:08.014Z,23.60
2022-10-07T13:56:42.544Z,23.70
2022-10-07T13:59:20.350Z,23.80
2022-10-07T14:01:53.396Z,23.80
2022-10-07T14:05:01.111Z,23.90
2022-10-07T14:07:29.301Z,23.90
2022-10-07T14:10:05.096Z,24.00
2022-10-07T14:12:42.858Z,24.00
2022-10-07T14:15:14.611Z,24.00
2022-10-07T14:17:47.690Z,24.00
2022-10-07T14:20:33.924Z,24.00
2022-10-07T14:23:05.251Z,23.90
2022-10-07T14:25:53.308Z,23.80
2022-10-07T14:28:23.663Z,23.80
2022-10-07T14:31:27.433Z,23.80
2022-10-07T14:34:27.990Z,23.80
2022-10-07T14:37:26.223Z,23.70
2022-10-07T14:39:56.920Z,23.60
2022-10-07T14:42:36.301Z,23.50
2022-10-07T14:45:08.189Z,23.60
2022-10-07T14:47:50.842Z,23.60
2022-10-07T14:50:30.112Z,23.50
2022-10-07T14:52:58.350Z,23.60
2022-10-07T14:56:02.660Z,23.60
2022-10-07T14:58:38.670Z,23.60
2022-10-07T15:01:10.380Z,23.70
2022-10-07T15:03:37.846Z,23.80
2022-10-07T15:06:07.761Z,23.90
2022-10-07T15:08:35.060Z,24.00
2022-10-07T15:11:03.020Z,24.10
2022-10-07T15:13:42.634Z,24.10
2022-10-07T15:16:16.182Z,24.10
2022-10-07T15:18:46.970Z,24.10
2022-10-07T15:21:17.179Z,24.10
2022-10-07T15:24:03.268Z,24.00
2022-10-07T15:26:47.241Z,24.00
2022-10-07T15:29:15.350Z,23.90
2022-10-07T15:31:43.361Z,23.90
2022-10-07T15:34:11.500Z,23.80
2022-10-07T15:36:38.690Z,23.80
2022-10-07T15:39:06.712Z,23.70
2022-10-07T15:41:37.890Z,23.70
2022-10-07T15:44:14.531Z,23.60
2022-10-07T15:46:42.582Z,23.60
2022-10-07T15:49:10.170Z,23.50
2022-10-07T15:51:37.550Z,23.40
2022-10-07T15:54:06.214Z,23.40
2022-10-07T15:56:34.430Z,23.40
2022-10-07T15:59:02.311Z,23.30
2022-10-07T16:01:32.222Z,23.30
2022-10-07T16:04:02.301Z,23.30
2022-10-07T16:06:32.820Z,23.30
2022-10-07T16:09:00.938Z,23.30
2022-10-07T16:11:30.110Z,23.20
2022-10-07T16:14:00.057Z,23.20
2022-10-07T16:19:11.710Z,23.10
2022-10-07T16:21:40.911Z,23.10
2022-10-07T16:24:22.713Z,23.00
2022-10-07T16:26:55.640Z,23.00
2022-10-07T16:29:42.201Z,23.00
2022-10-07T16:32:11.226Z,22.90
2022-10-07T16:34:43.523Z,22.80
2022-10-07T16:37:12.101Z,22.80
2022-10-07T16:39:40.431Z,22.80
2022-10-07T16:42:07.790Z,22.80
2022-10-07T16:44:35.550Z,22.80
2022-10-07T16:47:03.213Z,22.80
2022-10-07T16:49:30.631Z,22.80
2022-10-07T16:51:58.461Z,22.70
2022-10-07T16:54:26.154Z,22.60
2022-10-07T16:56:53.504Z,22.50
2022-10-07T16:59:24.299Z,22.50
2022-10-07T17:01:55.834Z,22.40
2022-10-07T17:04:24.967Z,22.30
2022-10-07T17:06:52.810Z,22.30
2022-10-07T17:09:22.130Z,22.20
2022-10-07T17:11:49.570Z,22.10
2022-10-07T17:14:19.380Z,22.10
2022-10-07T17:16:52.910Z,22.00
2022-10-07T17:22:06.261Z,21.80
2022-10-07T17:24:34.002Z,21.80
2022-10-07T17:27:01.250Z,21.70
2022-10-07T17:29:29.759Z,21.80
2022-10-07T17:34:41.918Z,21.70
2022-10-07T17:37:11.802Z,21.70
2022-10-07T17:39:39.120Z,21.70
2022-10-07T17:44:47.461Z,21.60
2022-10-07T17:47:20.850Z,21.60
2022-10-07T17:49:59.461Z,21.50
2022-10-07T17:52:27.693Z,21.40
2022-10-07T17:54:58.630Z,21.30
2022-10-07T17:57:26.082Z,21.20
2022-10-07T17:59:53.297Z,21.10
2022-10-07T18:02:20.675Z,21.00
2022-10-07T18:04:48.127Z,20.90
2022-10-07T18:07:17.661Z,20.90
2022-10-07T18:09:44.940Z,20.90
2022-10-07T18:12:30.680Z,20.90
2022-10-07T18:15:16.283Z,20.90
2022-10-07T18:17:44.725Z,20.70
2022-10-07T18:20:15.150Z,20.60
2022-10-07T18:22:44.571Z,20.40
2022-10-07T18:25:12.231Z,20.30
2022-10-07T18:30:21.261Z,20.00
2022-10-07T18:32:48.540Z,19.90
2022-10-07T18:35:15.870Z,19.80
2022-10-07T18:40:24.230Z,19.70
2022-10-07T18:42:51.562Z,19.60
2022-10-07T18:45:18.870Z,19.60
2022-10-07T18:50:30.181Z,19.60
2022-10-07T18:53:00.848Z,19.60
2022-10-07T18:55:28.110Z,19.50
2022-10-07T18:57:55.340Z,19.40
2022-10-07T19:00:22.710Z,19.40
2022-10-07T19:02:51.342Z,19.40
2022-10-07T19:05:18.641Z,19.40
2022-10-07T19:07:46.447Z,19.40
2022-10-07T19:10:14.702Z,19.30
2022-10-07T19:13:20.519Z,19.20
2022-10-07T19:15:48.110Z,19.20
2022-10-07T19:18:15.348Z,19.10
2022-10-07T19:20:42.652Z,19.10
2022-10-07T19:23:11.720Z,19.00
2022-10-07T19:25:48.150Z,19.00
2022-10-07T19:28:15.606Z,19.00
2022-10-07T19:30:44.533Z,19.00
2022-10-07T19:33:11.820Z,19.00
2022-10-07T19:38:20.914Z,19.10
2022-10-07T19:40:48.211Z,19.10
2022-10-07T19:43:15.470Z,19.10
2022-10-07T19:45:43.111Z,19.10
2022-10-07T19:48:14.449Z,19.10
2022-10-07T19:50:42.121Z,19.10
2022-10-07T19:53:10.195Z,19.10
2022-10-07T19:55:37.640Z,19.20
2022-10-07T20:00:46.097Z,19.10
2022-10-07T20:03:13.421Z,19.10
2022-10-07T20:08:21.970Z,19.20
2022-10-07T20:10:49.210Z,19.30
2022-10-07T20:13:17.730Z,19.30
2022-10-07T20:15:45.070Z,19.30
2022-10-07T20:18:12.380Z,19.20
2022-10-07T20:20:40.184Z,19.10
2022-10-07T20:23:07.540Z,19.10
2022-10-07T20:25:37.451Z,19.00
2022-10-07T20:28:05.497Z,19.00
2022-10-07T20:30:35.130Z,18.80
2022-10-07T20:35:43.670Z,18.60
2022-10-07T20:38:10.873Z,18.60
2022-10-07T20:40:56.340Z,18.50
2022-10-07T20:43:23.589Z,18.40
2022-10-07T20:45:57.756Z,18.30
2022-10-07T20:48:28.151Z,18.20
2022-10-07T20:50:56.170Z,18.20
2022-10-07T20:53:23.511Z,18.10
2022-10-07T20:55:50.781Z,18.10
2022-10-07T20:58:18.135Z,18.10
2022-10-07T21:00:45.411Z,18.10
2022-10-07T21:03:12.830Z,18.10
2022-10-07T21:05:40.192Z,18.20
2022-10-07T21:08:07.560Z,18.20
2022-10-07T21:10:34.802Z,18.20
2022-10-07T21:13:02.294Z,18.20
2022-10-07T21:15:29.720Z,18.20
2022-10-07T21:20:38.360Z,18.30
2022-10-07T21:23:05.726Z,18.20
2022-10-07T21:25:34.113Z,18.20
2022-10-07T21:28:01.543Z,18.20
2022-10-07T21:30:29.602Z,18.20
2022-10-07T21:32:56.881Z,18.20
2022-10-07T21:35:24.231Z,18.20
2022-10-07T21:37:51.410Z,18.20
2022-10-07T21:40:18.701Z,18.10
2022-10-07T21:42:46.175Z,18.10
2022-10-07T21:45:13.760Z,18.10
2022-10-07T21:47:41.020Z,18.10
2022-10-07T21:50:09.581Z,18.10
2022-10-07T21:52:36.760Z,18.10
2022-10-07T21:55:04.360Z,18.00
2022-10-07T21:57:31.760Z,18.00
2022-10-07T21:59:59.230Z,18.00
2022-10-07T22:02:29.411Z,17.90
2022-10-07T22:05:00.033Z,17.90
2022-10-07T22:07:59.996Z,17.80
2022-10-07T22:10:29.916Z,17.70
2022-10-07T22:12:57.165Z,17.70
2022-10-07T22:15:24.546Z,17.70
2022-10-07T22:17:51.826Z,17.60
2022-10-07T22:20:19.846Z,17.60
2022-10-07T22:22:49.466Z,17.60
2022-10-07T22:25:17.115Z,17.60
2022-10-07T22:27:44.544Z,17.50
2022-10-07T22:30:12.327Z,17.50
2022-10-07T22:32:39.596Z,17.50
2022-10-07T22:35:25.745Z,17.50
2022-10-07T22:37:53.365Z,17.40
2022-10-07T22:40:20.706Z,17.40
2022-10-07T22:42:48.205Z,17.40
2022-10-07T22:45:17.265Z,17.40
2022-10-07T22:47:44.925Z,17.40
2022-10-07T22:50:12.195Z,17.40
2022-10-07T22:52:39.525Z,17.40
2022-10-07T22:55:08.647Z,17.40
2022-10-07T22:57:36.716Z,17.50
2022-10-07T23:00:07.545Z,17.50
2022-10-07T23:02:34.999Z,17.40
2022-10-07T23:05:02.564Z,17.50
2022-10-07T23:07:30.016Z,17.50
2022-10-07T23:09:57.296Z,17.50
2022-10-07T23:12:24.775Z,17.40
2022-10-07T23:14:52.045Z,17.40
2022-10-07T23:17:19.340Z,17.30
2022-10-07T23:19:46.607Z,17.40
2022-10-07T23:22:14.048Z,17.30
2022-10-07T23:24:41.267Z,17.30
2022-10-07T23:27:10.395Z,17.30
2022-10-07T23:29:37.697Z,17.20
2022-10-07T23:32:05.016Z,17.30
2022-10-07T23:34:32.275Z,17.20
2022-10-07T23:36:59.555Z,17.30
2022-10-07T23:39:27.243Z,17.30
2022-10-07T23:41:55.087Z,17.30
2022-10-07T23:44:23.316Z,17.30
2022-10-07T23:46:51.935Z,17.30
2022-10-07T23:49:19.205Z,17.40
2022-10-07T23:51:47.615Z,17.40
2022-10-07T23:54:15.114Z,17.30
2022-10-07T23:56:42.479Z,17.30
2022-10-07T23:59:09.815Z,17.20
